Vilankulo Airport

Airport
ICAO code: 
FQVL
IATA Code: 
VNX
Summary
ICAO Region: 
AFI
Territory: 
Location: 
Vilankulo,
Serving: 
Vilankulo
Elevation: 
46 ft
Coordinates: 
Aerial View: 
22° 0' 56.158" S, 35° 18' 44.382" E
Metar
Observation
FQVL 061100Z 11008KT 9999 FEW020 BKN/// 32/27 Q1013
Station
Vilanculos
Date/Time
2021-12-06 11:00:00
Wind direction
110°
Wind speed
08 kts
Lowest cloud amount
few clouds
Temperature
32°C
Dew point
27°C
Humidity
75%
QNH
1013 hPa
Weather condition
n/a

Runways

Designator Length Width Surface Rops
10/28 750 23 ASP No/No
17/35 1470 30 ASP No/No
Airport map: 
Aerial View: 

SKYbrary Partners:

Safety knowledge contributed by: